Terminal Aerodrome Forecast
Issued by NWS

Home | Current Version | Previous Version | Text Only | Print | Product List | Glossary On
Versions: 1 2 3 4 5 6 7 8 9 10 11 12
811
FTUS42 TJSJ 141747
TAFIST
TAF
TIST 141747Z 1418/1518 11011KT P6SM VCSH FEW020 SCT030 SCT060
     FM142300 07007KT P6SM VCSH FEW025 SCT050 SCT090
     FM151400 12015KT P6SM FEW020 SCT030 SCT050=

USA.gov is the U.S. government's official web portal to all federal, state and local government web resources and services.